createdAt,value
2016-12-18T00:00:36.843Z,90.38
2016-12-18T00:01:36.824Z,90.76
2016-12-18T00:02:36.804Z,90.28
2016-12-18T00:03:36.778Z,90.47
2016-12-18T00:04:36.767Z,90.66
2016-12-18T00:05:36.744Z,90.47
2016-12-18T00:06:36.727Z,90.57
2016-12-18T00:07:36.708Z,90.76
2016-12-18T00:08:36.691Z,90.38
2016-12-18T00:09:36.671Z,90.57
2016-12-18T00:10:36.653Z,90.76
2016-12-18T00:11:36.635Z,90.66
2016-12-18T00:12:36.618Z,90.66
2016-12-18T00:13:36.914Z,90.66
2016-12-18T00:14:36.581Z,90.76
2016-12-18T00:15:36.562Z,90.85
2016-12-18T00:16:36.596Z,90.66
2016-12-18T00:17:36.528Z,90.19
2016-12-18T00:18:36.514Z,90.66
2016-12-18T00:19:36.491Z,90.28
2016-12-18T00:20:36.787Z,90.38
2016-12-18T00:21:36.456Z,90.38
2016-12-18T00:22:36.952Z,90.09
2016-12-18T00:23:36.421Z,90.19
2016-12-18T00:24:36.397Z,90.28
2016-12-18T00:25:36.381Z,90.38
2016-12-18T00:26:36.365Z,89.9
2016-12-18T00:27:36.349Z,90.38
2016-12-18T00:28:36.328Z,90.38
2016-12-18T00:29:36.307Z,90.28
2016-12-18T00:30:36.292Z,90.38
2016-12-18T00:31:36.591Z,90.19
2016-12-18T00:32:36.257Z,89.9
2016-12-18T00:33:36.240Z,90.38
2016-12-18T00:34:36.221Z,91.04
2016-12-18T00:35:36.202Z,90.95
2016-12-18T00:36:36.183Z,90.19
2016-12-18T00:37:36.167Z,90.66
2016-12-18T00:38:36.151Z,90.66
2016-12-18T00:39:36.129Z,90.85
2016-12-18T00:40:36.116Z,90.57
2016-12-18T00:41:36.097Z,90.66
2016-12-18T00:42:36.071Z,90.66
2016-12-18T00:43:36.059Z,90.57
2016-12-18T00:44:36.037Z,90.47
2016-12-18T00:45:36.018Z,90.85
2016-12-18T00:46:36.006Z,90.85
2016-12-18T00:47:35.983Z,90.76
2016-12-18T00:48:35.963Z,91.04
2016-12-18T00:49:36.268Z,90.95
2016-12-18T00:50:35.931Z,90.95
2016-12-18T00:51:35.912Z,90.95
2016-12-18T00:52:35.895Z,90.66
2016-12-18T00:53:35.876Z,90.95
2016-12-18T00:54:35.855Z,90.85
2016-12-18T00:55:35.841Z,90.85
2016-12-18T00:56:35.824Z,91.04
2016-12-18T00:57:35.804Z,90.76
2016-12-18T00:58:35.785Z,91.33
2016-12-18T00:59:35.770Z,91.33
2016-12-18T01:00:35.747Z,91.33
2016-12-18T01:01:35.729Z,91.42
2016-12-18T01:02:35.711Z,91.42
2016-12-18T01:03:35.694Z,91.14
2016-12-18T01:04:35.676Z,91.14
2016-12-18T01:05:36.002Z,91.33
2016-12-18T01:06:35.670Z,91.52
2016-12-18T01:07:35.624Z,91.24
2016-12-18T01:08:35.606Z,91.33
2016-12-18T01:09:35.584Z,91.42
2016-12-18T01:10:35.876Z,91.24
2016-12-18T01:11:35.548Z,91.33
2016-12-18T01:12:35.529Z,91.52
2016-12-18T01:13:35.515Z,91.33
2016-12-18T01:14:35.490Z,91.33
2016-12-18T01:15:35.473Z,91.14
2016-12-18T01:16:35.455Z,91.42
2016-12-18T01:17:35.437Z,91.71
2016-12-18T01:18:35.421Z,91.52
2016-12-18T01:19:35.427Z,91.52
2016-12-18T01:20:35.384Z,91.33
2016-12-18T01:21:35.363Z,91.61
2016-12-18T01:22:35.660Z,91.33
2016-12-18T01:23:35.327Z,91.61
2016-12-18T01:24:35.310Z,90.95
2016-12-18T01:25:35.602Z,90.76
2016-12-18T01:26:35.272Z,91.14
2016-12-18T01:27:35.254Z,91.24
2016-12-18T01:28:35.236Z,91.24
2016-12-18T01:29:35.218Z,91.33
2016-12-18T01:30:35.511Z,91.33
2016-12-18T01:31:35.185Z,91.33
2016-12-18T01:32:35.162Z,91.14
2016-12-18T01:33:35.140Z,91.14
2016-12-18T01:34:35.123Z,91.04
2016-12-18T01:35:35.106Z,90.85
2016-12-18T01:36:35.089Z,91.14
2016-12-18T01:37:35.068Z,90.95
2016-12-18T01:38:35.049Z,91.61
2016-12-18T01:39:35.032Z,91.42
2016-12-18T01:40:35.018Z,91.61
2016-12-18T01:41:34.996Z,91.42
2016-12-18T01:42:34.979Z,91.52
2016-12-18T01:43:34.960Z,91.61
2016-12-18T01:44:34.945Z,91.71
2016-12-18T01:45:34.928Z,91.52
2016-12-18T01:46:34.907Z,91.52
2016-12-18T01:47:34.895Z,91.33
2016-12-18T01:48:34.870Z,91.71
2016-12-18T01:49:34.850Z,91.99
2016-12-18T01:50:34.831Z,91.8
2016-12-18T01:51:34.815Z,91.71
2016-12-18T01:52:34.799Z,91.61
2016-12-18T01:53:34.780Z,91.61
2016-12-18T01:54:34.760Z,91.8
2016-12-18T01:55:34.739Z,92.37
2016-12-18T01:56:34.721Z,91.99
2016-12-18T01:57:34.706Z,92.13
2016-12-18T01:58:34.685Z,91.89
2016-12-18T01:59:34.667Z,92.13
2016-12-18T02:00:34.649Z,92.18
2016-12-18T02:01:34.944Z,92.28
2016-12-18T02:02:34.610Z,92.85
2016-12-18T02:03:34.591Z,92.18
2016-12-18T02:04:34.576Z,92.85
2016-12-18T02:05:34.557Z,92.75
2016-12-18T02:06:34.538Z,92.75
2016-12-18T02:07:34.531Z,92.47
2016-12-18T02:08:34.505Z,92.85
2016-12-18T02:09:34.799Z,92.47
2016-12-18T02:10:34.472Z,92.85
2016-12-18T02:11:34.446Z,92.75
2016-12-18T02:12:34.428Z,92.47
2016-12-18T02:13:34.418Z,92.75
2016-12-18T02:14:34.397Z,92.8
2016-12-18T02:15:34.378Z,92.8
2016-12-18T02:16:34.358Z,92.47
2016-12-18T02:17:34.338Z,92.61
2016-12-18T02:18:34.320Z,92.47
2016-12-18T02:19:34.305Z,92.51
2016-12-18T02:20:34.290Z,92.23
2016-12-18T02:21:34.263Z,92.61
2016-12-18T02:22:34.448Z,92.85
2016-12-18T02:23:34.229Z,92.85
2016-12-18T02:24:34.210Z,92.8
2016-12-18T02:25:34.193Z,92.75
2016-12-18T02:26:34.173Z,92.9
2016-12-18T02:27:34.156Z,92.61
2016-12-18T02:28:34.138Z,92.99
2016-12-18T02:29:34.118Z,92.85
2016-12-18T02:30:34.102Z,92.9
2016-12-18T02:31:34.086Z,92.23
2016-12-18T02:32:34.067Z,92.9
2016-12-18T02:33:34.049Z,92.9
2016-12-18T02:34:34.344Z,92.9
2016-12-18T02:35:34.009Z,92.9
2016-12-18T02:36:33.990Z,92.9
2016-12-18T02:37:33.977Z,92.9
2016-12-18T02:38:33.956Z,92.99
2016-12-18T02:39:33.935Z,92.23
2016-12-18T02:40:33.921Z,92.71
2016-12-18T02:41:33.897Z,92.23
2016-12-18T02:42:33.886Z,92.23
2016-12-18T02:43:33.861Z,92.8
2016-12-18T02:44:33.846Z,92.8
2016-12-18T02:45:33.826Z,92.61
2016-12-18T02:46:33.809Z,92.61
2016-12-18T02:47:33.791Z,92.51
2016-12-18T02:48:33.770Z,92.61
2016-12-18T02:49:34.065Z,92.61
2016-12-18T02:50:33.739Z,92.61
2016-12-18T02:51:33.718Z,92.61
2016-12-18T02:52:33.701Z,92.61
2016-12-18T02:53:33.678Z,92.47
2016-12-18T02:54:33.666Z,92.51
2016-12-18T02:55:33.650Z,92.61
2016-12-18T02:56:33.626Z,92.8
2016-12-18T02:57:33.953Z,92.9
2016-12-18T02:58:33.589Z,92.8
2016-12-18T02:59:33.572Z,92.51
2016-12-18T03:00:33.555Z,92.8
2016-12-18T03:01:33.539Z,92.8
2016-12-18T03:02:33.518Z,92.8
2016-12-18T03:03:33.499Z,92.99
2016-12-18T03:04:33.477Z,92.61
2016-12-18T03:05:33.461Z,92.61
2016-12-18T03:06:33.446Z,92.51
2016-12-18T03:07:33.428Z,92.32
2016-12-18T03:08:33.407Z,92.32
2016-12-18T03:09:33.388Z,92.71
2016-12-18T03:10:33.369Z,92.56
2016-12-18T03:11:33.357Z,92.71
2016-12-18T03:12:33.334Z,92.51
2016-12-18T03:13:33.317Z,92.61
2016-12-18T03:14:33.303Z,92.9
2016-12-18T03:15:33.282Z,92.66
2016-12-18T03:16:33.264Z,92.71
2016-12-18T03:17:33.243Z,92.9
2016-12-18T03:18:33.229Z,92.9
2016-12-18T03:19:33.525Z,92.04
2016-12-18T03:20:33.190Z,92.13
2016-12-18T03:21:33.489Z,92.32
2016-12-18T03:22:33.158Z,92.13
2016-12-18T03:23:33.451Z,92.42
2016-12-18T03:24:33.127Z,91.94
2016-12-18T03:25:33.098Z,92.42
2016-12-18T03:26:33.084Z,92.18
2016-12-18T03:27:33.068Z,92.13
2016-12-18T03:28:33.046Z,92.09
2016-12-18T03:29:33.030Z,92.04
2016-12-18T03:30:33.013Z,91.94
2016-12-18T03:31:32.990Z,91.94
2016-12-18T03:32:32.976Z,92.04
2016-12-18T03:33:32.958Z,91.85
2016-12-18T03:34:32.940Z,91.89
2016-12-18T03:35:32.921Z,92.04
2016-12-18T03:36:32.903Z,91.89
2016-12-18T03:37:32.886Z,92.13
2016-12-18T03:38:32.868Z,92.32
2016-12-18T03:39:32.846Z,91.89
2016-12-18T03:40:32.830Z,92.04
2016-12-18T03:41:32.812Z,92.13
2016-12-18T03:42:32.800Z,92.28
2016-12-18T03:43:32.779Z,92.04
2016-12-18T03:44:32.762Z,92.04
2016-12-18T03:45:32.745Z,92.37
2016-12-18T03:46:33.037Z,92.23
2016-12-18T03:47:32.707Z,92.32
2016-12-18T03:48:32.694Z,91.75
2016-12-18T03:49:32.672Z,91.66
2016-12-18T03:50:32.655Z,91.66
2016-12-18T03:51:32.634Z,92.04
2016-12-18T03:52:32.614Z,91.94
2016-12-18T03:53:32.598Z,91.85
2016-12-18T03:54:32.580Z,91.52
2016-12-18T03:55:32.876Z,91.61
2016-12-18T03:56:32.541Z,91.47
2016-12-18T03:57:32.529Z,91.56
2016-12-18T03:58:32.512Z,91.85
2016-12-18T03:59:32.490Z,91.8
2016-12-18T04:00:32.471Z,91.61
2016-12-18T04:01:32.787Z,91.52
2016-12-18T04:02:32.435Z,91.47
2016-12-18T04:03:32.418Z,91.71
2016-12-18T04:04:32.398Z,91.28
2016-12-18T04:05:32.379Z,91.33
2016-12-18T04:06:32.361Z,91.38
2016-12-18T04:07:32.343Z,90.99
2016-12-18T04:08:32.324Z,91.47
2016-12-18T04:09:32.306Z,91.47
2016-12-18T04:10:32.288Z,91.75
2016-12-18T04:11:32.271Z,91.56
2016-12-18T04:12:32.566Z,91.14
2016-12-18T04:13:32.235Z,91.19
2016-12-18T04:14:32.217Z,90.9
2016-12-18T04:15:32.515Z,91.33
2016-12-18T04:16:32.181Z,90.99
2016-12-18T04:17:32.166Z,90.9
2016-12-18T04:18:32.146Z,90.99
2016-12-18T04:19:32.437Z,90.9
2016-12-18T04:20:32.111Z,90.9
2016-12-18T04:21:32.090Z,90.85
2016-12-18T04:22:32.277Z,91.19
2016-12-18T04:23:32.369Z,90.52
2016-12-18T04:24:32.036Z,90.95
2016-12-18T04:25:32.333Z,90.52
2016-12-18T04:26:32.002Z,90.8
2016-12-18T04:27:31.979Z,90.61
2016-12-18T04:28:31.964Z,90.71
2016-12-18T04:29:32.263Z,90.57
2016-12-18T04:30:31.926Z,90.85
2016-12-18T04:31:31.912Z,90.61
2016-12-18T04:32:31.891Z,90.71
2016-12-18T04:33:32.183Z,90.71
2016-12-18T04:34:31.861Z,90.57
2016-12-18T04:35:31.839Z,90.61
2016-12-18T04:36:31.820Z,90.38
2016-12-18T04:37:31.801Z,90.61
2016-12-18T04:38:31.785Z,90.71
2016-12-18T04:39:31.767Z,90.52
2016-12-18T04:40:31.749Z,90.57
2016-12-18T04:41:31.732Z,90.61
2016-12-18T04:42:31.717Z,90.42
2016-12-18T04:43:31.695Z,90.71
2016-12-18T04:44:31.676Z,90.95
2016-12-18T04:45:31.658Z,91.04
2016-12-18T04:46:31.639Z,90.85
2016-12-18T04:47:31.623Z,90.95
2016-12-18T04:48:31.601Z,91.14
2016-12-18T04:49:31.586Z,90.95
2016-12-18T04:50:31.567Z,90.85
2016-12-18T04:51:31.555Z,90.85
2016-12-18T04:52:31.531Z,91.14
2016-12-18T04:53:31.521Z,90.76
2016-12-18T04:54:31.501Z,91.04
2016-12-18T04:55:31.479Z,90.95
2016-12-18T04:56:31.459Z,90.85
2016-12-18T04:57:31.438Z,90.28
2016-12-18T04:58:31.423Z,90.85
2016-12-18T04:59:31.405Z,90.47
2016-12-18T05:00:31.385Z,90.76
2016-12-18T05:01:31.367Z,91.04
2016-12-18T05:02:31.349Z,90.85
2016-12-18T05:03:31.331Z,90.95
2016-12-18T05:04:31.312Z,90.85
2016-12-18T05:05:31.302Z,91.14
2016-12-18T05:06:31.278Z,90.76
2016-12-18T05:07:31.259Z,91.42
2016-12-18T05:08:31.554Z,91.42
2016-12-18T05:09:31.224Z,91.42
2016-12-18T05:10:31.210Z,91.42
2016-12-18T05:11:31.185Z,90.57
2016-12-18T05:12:31.168Z,90.76
2016-12-18T05:13:31.146Z,90.76
2016-12-18T05:14:31.129Z,91.04
2016-12-18T05:15:31.117Z,91.14
2016-12-18T05:16:31.091Z,91.04
2016-12-18T05:17:31.076Z,90.95
2016-12-18T05:18:31.057Z,91.14
2016-12-18T05:19:31.039Z,91.14
2016-12-18T05:20:31.018Z,90.95
2016-12-18T05:21:31.000Z,90.95
2016-12-18T05:22:30.981Z,91.14
2016-12-18T05:23:30.966Z,90.76
2016-12-18T05:24:30.961Z,90.95
2016-12-18T05:25:31.239Z,90.95
2016-12-18T05:26:30.907Z,90.95
2016-12-18T05:27:30.890Z,90.76
2016-12-18T05:28:30.872Z,91.33
2016-12-18T05:29:30.850Z,90.66
2016-12-18T05:30:30.840Z,90.95
2016-12-18T05:31:30.821Z,90.95
2016-12-18T05:32:30.799Z,90.95
2016-12-18T05:33:30.781Z,90.76
2016-12-18T05:34:30.765Z,90.47
2016-12-18T05:35:30.740Z,90.47
2016-12-18T05:36:30.727Z,90.38
2016-12-18T05:37:30.705Z,90.47
2016-12-18T05:38:30.692Z,90.38
2016-12-18T05:39:30.668Z,90.76
2016-12-18T05:40:30.652Z,90.57
2016-12-18T05:41:30.944Z,90.09
2016-12-18T05:42:30.924Z,89.9
2016-12-18T05:43:30.597Z,89.81
2016-12-18T05:44:30.575Z,90.38
2016-12-18T05:45:30.559Z,90.47
2016-12-18T05:46:30.570Z,90
2016-12-18T05:47:30.521Z,90
2016-12-18T05:48:30.510Z,90
2016-12-18T05:49:30.484Z,89.9
2016-12-18T05:50:30.469Z,89.9
2016-12-18T05:51:30.444Z,89.81
2016-12-18T05:52:30.427Z,89.81
2016-12-18T05:53:30.406Z,90
2016-12-18T05:54:30.394Z,89.81
2016-12-18T05:55:30.372Z,90
2016-12-18T05:56:30.351Z,90.19
2016-12-18T05:57:30.339Z,90.47
2016-12-18T05:58:30.318Z,90.38
2016-12-18T05:59:30.296Z,90.28
2016-12-18T06:00:30.278Z,90.66
2016-12-18T06:01:30.261Z,90.57
2016-12-18T06:02:30.239Z,90.76
2016-12-18T06:03:30.219Z,90.47
2016-12-18T06:04:30.199Z,90.38
2016-12-18T06:05:30.184Z,90.57
2016-12-18T06:06:30.167Z,90.57
2016-12-18T06:07:30.147Z,90.28
2016-12-18T06:08:30.132Z,90.19
2016-12-18T06:09:30.420Z,90.09
2016-12-18T06:10:30.403Z,89.72
2016-12-18T06:11:30.070Z,90
2016-12-18T06:12:30.051Z,89.43
2016-12-18T06:13:30.038Z,89.72
2016-12-18T06:14:30.017Z,90
2016-12-18T06:15:30.001Z,89.53
2016-12-18T06:16:29.979Z,89.72
2016-12-18T06:17:29.964Z,89.81
2016-12-18T06:18:29.943Z,89.81
2016-12-18T06:19:29.921Z,89.72
2016-12-18T06:20:29.920Z,89.72
2016-12-18T06:21:29.885Z,89.9
2016-12-18T06:22:29.869Z,89.81
2016-12-18T06:23:29.848Z,89.72
2016-12-18T06:24:29.829Z,89.53
2016-12-18T06:25:29.809Z,90.19
2016-12-18T06:26:29.788Z,90.09
2016-12-18T06:27:29.769Z,90.66
2016-12-18T06:28:29.754Z,90.57
2016-12-18T06:29:29.736Z,90.66
2016-12-18T06:30:29.716Z,90.85
2016-12-18T06:31:29.698Z,90.76
2016-12-18T06:32:29.679Z,90.66
2016-12-18T06:33:29.671Z,90.57
2016-12-18T06:34:29.647Z,90.66
2016-12-18T06:35:29.629Z,90.57
2016-12-18T06:36:29.607Z,90.47
2016-12-18T06:37:29.631Z,91.04
2016-12-18T06:38:29.565Z,90.57
2016-12-18T06:39:29.544Z,90.57
2016-12-18T06:40:29.530Z,90.47
2016-12-18T06:41:29.507Z,91.8
2016-12-18T06:42:29.492Z,91.61
2016-12-18T06:43:29.470Z,91.61
2016-12-18T06:44:29.460Z,91.42
2016-12-18T06:45:29.432Z,91.52
2016-12-18T06:46:29.419Z,91.33
2016-12-18T06:47:29.400Z,91.61
2016-12-18T06:48:29.380Z,91.42
2016-12-18T06:49:29.358Z,91.52
2016-12-18T06:50:29.341Z,91.42
2016-12-18T06:51:29.325Z,91.52
2016-12-18T06:52:29.301Z,91.42
2016-12-18T06:53:29.286Z,91.52
2016-12-18T06:54:29.266Z,91.61
2016-12-18T06:55:29.248Z,91.24
2016-12-18T06:56:29.232Z,91.24
2016-12-18T06:57:29.215Z,91.52
2016-12-18T06:58:29.194Z,91.52
2016-12-18T06:59:29.180Z,91.24
2016-12-18T07:00:29.163Z,91.8
2016-12-18T07:01:29.142Z,91.52
2016-12-18T07:02:29.122Z,90.76
2016-12-18T07:03:29.112Z,90.57
2016-12-18T07:04:29.086Z,90.66
2016-12-18T07:05:29.381Z,90.38
2016-12-18T07:06:29.045Z,90.76
2016-12-18T07:07:29.026Z,90.95
2016-12-18T07:08:29.012Z,90.85
2016-12-18T07:09:28.987Z,90.95
2016-12-18T07:10:28.971Z,90.85
2016-12-18T07:11:28.955Z,90.76
2016-12-18T07:12:28.934Z,90.85
2016-12-18T07:13:28.914Z,90.95
2016-12-18T07:14:28.899Z,90.95
2016-12-18T07:15:28.879Z,90.57
2016-12-18T07:16:28.860Z,90.47
2016-12-18T07:17:28.842Z,90.66
2016-12-18T07:18:28.828Z,90.76
2016-12-18T07:19:28.809Z,90.76
2016-12-18T07:20:28.788Z,90.95
2016-12-18T07:21:28.773Z,90.57
2016-12-18T07:22:28.753Z,90.47
2016-12-18T07:23:28.731Z,90.38
2016-12-18T07:24:28.716Z,90.38
2016-12-18T07:25:29.008Z,90.57
2016-12-18T07:26:28.677Z,90.57
2016-12-18T07:27:28.660Z,90.57
2016-12-18T07:28:28.642Z,90
2016-12-18T07:29:28.620Z,90.28
2016-12-18T07:30:28.607Z,89.9
2016-12-18T07:31:28.589Z,90.57
2016-12-18T07:32:28.892Z,90
2016-12-18T07:33:28.548Z,90.76
2016-12-18T07:34:28.529Z,90.19
2016-12-18T07:35:28.510Z,90.38
2016-12-18T07:36:28.491Z,90.19
2016-12-18T07:37:28.476Z,90.57
2016-12-18T07:38:28.457Z,90.38
2016-12-18T07:39:28.438Z,90.28
2016-12-18T07:40:28.420Z,90.38
2016-12-18T07:41:28.400Z,90.47
2016-12-18T07:42:28.383Z,90.57
2016-12-18T07:43:28.361Z,90.47
2016-12-18T07:44:28.345Z,90.76
2016-12-18T07:45:28.338Z,90.66
2016-12-18T07:46:28.310Z,89.9
2016-12-18T07:47:28.293Z,90.66
2016-12-18T07:48:28.274Z,90.76
2016-12-18T07:49:28.255Z,90.57
2016-12-18T07:50:28.233Z,90.57
2016-12-18T07:51:28.533Z,90.66
2016-12-18T07:52:28.196Z,90.57
2016-12-18T07:53:28.181Z,90.57
2016-12-18T07:54:28.160Z,90.47
2016-12-18T07:55:28.140Z,90.57
2016-12-18T07:56:28.124Z,90.57
2016-12-18T07:57:28.105Z,90.57
2016-12-18T07:58:28.089Z,90.85
2016-12-18T07:59:28.376Z,90.57
2016-12-18T08:00:28.054Z,89.72
2016-12-18T08:01:28.344Z,90.47
2016-12-18T08:02:28.010Z,89.9
2016-12-18T08:03:28.311Z,90.09
2016-12-18T08:04:27.972Z,90.09
2016-12-18T08:05:27.958Z,90.38
2016-12-18T08:06:27.936Z,90.09
2016-12-18T08:07:27.919Z,90.09
2016-12-18T08:08:27.902Z,89.72
2016-12-18T08:09:27.883Z,89.53
2016-12-18T08:10:27.864Z,89.33
2016-12-18T08:11:27.851Z,89.62
2016-12-18T08:12:27.831Z,89.72
2016-12-18T08:13:27.816Z,89.81
2016-12-18T08:14:27.813Z,89.53
2016-12-18T08:15:28.089Z,89.81
2016-12-18T08:16:28.073Z,90.09
2016-12-18T08:17:27.738Z,89.9
2016-12-18T08:18:27.719Z,89.72
2016-12-18T08:19:27.703Z,89.81
2016-12-18T08:20:27.685Z,90
2016-12-18T08:21:27.667Z,90
2016-12-18T08:22:27.647Z,89.62
2016-12-18T08:23:27.831Z,89.53
2016-12-18T08:24:27.614Z,89.72
2016-12-18T08:25:27.592Z,89.72
2016-12-18T08:26:27.583Z,89.62
2016-12-18T08:27:27.567Z,89.81
2016-12-18T08:28:27.538Z,89.43
2016-12-18T08:29:27.522Z,89.62
2016-12-18T08:30:27.503Z,89.81
2016-12-18T08:31:27.799Z,89.53
2016-12-18T08:32:27.465Z,89.81
2016-12-18T08:33:27.449Z,90
2016-12-18T08:34:27.432Z,90.19
2016-12-18T08:35:27.413Z,89.81
2016-12-18T08:36:27.448Z,89.9
2016-12-18T08:37:27.376Z,90.09
2016-12-18T08:38:27.358Z,89.81
2016-12-18T08:39:27.339Z,90.19
2016-12-18T08:40:27.324Z,90
2016-12-18T08:41:27.332Z,90.76
2016-12-18T08:42:27.289Z,89.9
2016-12-18T08:43:27.588Z,89.72
2016-12-18T08:44:27.256Z,89.81
2016-12-18T08:45:27.236Z,89.81
2016-12-18T08:46:27.220Z,89.81
2016-12-18T08:47:27.519Z,89.9
2016-12-18T08:48:27.182Z,90.19
2016-12-18T08:49:27.168Z,90.09
2016-12-18T08:50:27.466Z,90.09
2016-12-18T08:51:27.131Z,90.09
2016-12-18T08:52:27.110Z,89.81
2016-12-18T08:53:27.092Z,89.72
2016-12-18T08:54:27.075Z,90.09
2016-12-18T08:55:27.059Z,90.09
2016-12-18T08:56:27.039Z,89.9
2016-12-18T08:57:27.022Z,90
2016-12-18T08:58:27.004Z,89.62
2016-12-18T08:59:27.304Z,90
2016-12-18T09:00:27.289Z,89.81
2016-12-18T09:01:26.954Z,90
2016-12-18T09:02:26.937Z,89.53
2016-12-18T09:03:26.917Z,90.28
2016-12-18T09:04:26.901Z,90.33
2016-12-18T09:05:26.883Z,90.05
2016-12-18T09:06:26.873Z,90.23
2016-12-18T09:07:26.850Z,90.71
2016-12-18T09:08:27.137Z,90.23
2016-12-18T09:09:26.811Z,91.47
2016-12-18T09:10:26.797Z,92.71
2016-12-18T09:11:26.775Z,92.9
2016-12-18T09:12:26.761Z,92.32
2016-12-18T09:13:26.740Z,91.94
2016-12-18T09:14:26.722Z,92.13
2016-12-18T09:15:26.709Z,92.71
2016-12-18T09:16:26.698Z,93.84
2016-12-18T09:17:26.682Z,93.94
2016-12-18T09:18:26.655Z,94.32
2016-12-18T09:19:26.638Z,94.89
2016-12-18T09:20:26.624Z,95.27
2016-12-18T09:21:26.920Z,95.65
2016-12-18T09:22:26.593Z,95.46
2016-12-18T09:23:26.573Z,95.65
2016-12-18T09:24:26.553Z,96.31
2016-12-18T09:25:26.902Z,96.03
2016-12-18T09:26:26.524Z,95.84
2016-12-18T09:27:26.499Z,95.75
2016-12-18T09:28:26.508Z,96.22
2016-12-18T09:29:26.468Z,96.41
2016-12-18T09:30:26.450Z,95.84
2016-12-18T09:31:26.430Z,95.94
2016-12-18T09:32:26.415Z,95.27
2016-12-18T09:33:26.397Z,96.5
2016-12-18T09:34:26.694Z,97.41
2016-12-18T09:35:26.361Z,97.22
2016-12-18T09:36:26.677Z,98.55
2016-12-18T09:37:26.333Z,99.99
2016-12-18T09:38:26.315Z,98.93
2016-12-18T09:39:26.296Z,98.26
2016-12-18T09:40:26.281Z,99.02
2016-12-18T09:41:26.263Z,98.45
2016-12-18T09:42:26.247Z,99.02
2016-12-18T09:43:26.230Z,99.11
2016-12-18T09:44:26.214Z,99.3
2016-12-18T09:45:26.200Z,99.78
2016-12-18T09:46:26.183Z,99.3
2016-12-18T09:47:26.163Z,99.59
2016-12-18T09:48:26.457Z,99.99
2016-12-18T09:49:26.134Z,99.99
2016-12-18T09:50:26.136Z,99.99
2016-12-18T09:51:26.094Z,99.99
2016-12-18T09:52:26.083Z,99.99
2016-12-18T09:53:26.066Z,99.99
2016-12-18T09:54:26.049Z,99.99
2016-12-18T09:55:26.035Z,99.99
2016-12-18T09:56:26.016Z,99.99
2016-12-18T09:57:26.003Z,99.99
2016-12-18T09:58:25.980Z,99.99
2016-12-18T09:59:25.966Z,99.99
2016-12-18T10:00:25.955Z,99.99
2016-12-18T10:01:25.939Z,99.99
2016-12-18T10:02:25.919Z,99.99
2016-12-18T10:03:26.216Z,99.99
2016-12-18T10:04:26.206Z,99.99
2016-12-18T10:05:25.873Z,99.99
2016-12-18T10:06:25.856Z,99.99
2016-12-18T10:07:25.839Z,99.99
2016-12-18T10:08:26.137Z,99.99
2016-12-18T10:09:25.806Z,99.99
2016-12-18T10:10:25.785Z,99.99
2016-12-18T10:11:25.773Z,99.99
2016-12-18T10:12:26.063Z,99.99
2016-12-18T10:13:25.736Z,99.99
2016-12-18T10:14:25.722Z,99.99
2016-12-18T10:15:25.709Z,99.99
2016-12-18T10:16:25.688Z,99.99
2016-12-18T10:17:25.671Z,99.99
2016-12-18T10:18:25.658Z,99.99
2016-12-18T10:19:25.638Z,99.99
2016-12-18T10:20:25.935Z,99.99
2016-12-18T10:21:25.607Z,99.99
2016-12-18T10:22:25.588Z,99.99
2016-12-18T10:23:25.773Z,99.99
2016-12-18T10:24:25.557Z,99.99
2016-12-18T10:25:25.536Z,99.99
2016-12-18T10:26:25.525Z,99.99
2016-12-18T10:27:25.504Z,99.99
2016-12-18T10:28:25.489Z,99.99
2016-12-18T10:29:25.473Z,99.99
2016-12-18T10:30:25.453Z,99.99
2016-12-18T10:31:25.440Z,99.99
2016-12-18T10:32:25.453Z,99.99
2016-12-18T10:33:25.404Z,99.99
2016-12-18T10:34:25.395Z,99.99
2016-12-18T10:35:25.371Z,99.99
2016-12-18T10:36:25.354Z,99.99
2016-12-18T10:37:25.341Z,99.99
2016-12-18T10:38:25.323Z,99.99
2016-12-18T10:39:25.309Z,99.99
2016-12-18T10:40:25.601Z,99.99
2016-12-18T10:41:25.272Z,99.99
2016-12-18T10:42:25.256Z,99.99
2016-12-18T10:43:25.243Z,99.99
2016-12-18T10:44:25.222Z,99.99
2016-12-18T10:45:25.207Z,99.99
2016-12-18T10:46:25.188Z,99.99
2016-12-18T10:47:25.173Z,99.99
2016-12-18T10:48:25.160Z,99.99
2016-12-18T10:49:25.147Z,99.99
2016-12-18T10:50:25.124Z,99.99
2016-12-18T10:51:25.106Z,99.99
2016-12-18T10:52:25.094Z,99.99
2016-12-18T10:53:25.071Z,99.99
2016-12-18T10:54:25.080Z,99.99
2016-12-18T10:55:25.081Z,99.99
2016-12-18T10:56:25.036Z,99.99
2016-12-18T10:57:25.006Z,99.99
2016-12-18T10:58:24.992Z,99.99
2016-12-18T10:59:24.984Z,99.99
2016-12-18T11:00:24.956Z,99.99
2016-12-18T11:01:24.943Z,99.99
2016-12-18T11:02:24.953Z,99.99
2016-12-18T11:03:24.911Z,99.99
2016-12-18T11:04:24.943Z,99.99
2016-12-18T11:05:24.882Z,99.99
2016-12-18T11:06:25.193Z,99.99
2016-12-18T11:07:24.854Z,99.99
2016-12-18T11:08:24.839Z,99.99
2016-12-18T11:09:24.819Z,99.99
2016-12-18T11:10:24.800Z,99.99
2016-12-18T11:11:24.778Z,99.99
2016-12-18T11:12:25.088Z,99.99
2016-12-18T11:13:24.746Z,99.99
2016-12-18T11:14:24.728Z,99.99
2016-12-18T11:15:24.714Z,99.99
2016-12-18T11:16:24.699Z,99.99
2016-12-18T11:17:24.682Z,99.99
2016-12-18T11:18:24.676Z,99.99
2016-12-18T11:19:24.652Z,99.99
2016-12-18T11:20:24.637Z,99.99
2016-12-18T11:21:24.987Z,99.99
2016-12-18T11:22:24.922Z,99.99
2016-12-18T11:23:24.585Z,99.99
2016-12-18T11:24:24.569Z,99.99
2016-12-18T11:25:24.870Z,99.99
2016-12-18T11:26:24.533Z,99.99
2016-12-18T11:27:24.518Z,99.99
2016-12-18T11:28:24.539Z,99.99
2016-12-18T11:29:24.514Z,99.99
2016-12-18T11:30:24.474Z,99.99
2016-12-18T11:31:24.462Z,99.99
2016-12-18T11:32:24.434Z,99.99
2016-12-18T11:33:24.421Z,99.99
2016-12-18T11:34:24.719Z,99.99
2016-12-18T11:35:24.387Z,99.99
2016-12-18T11:36:24.372Z,99.99
2016-12-18T11:37:24.355Z,99.99
2016-12-18T11:38:24.346Z,99.99
2016-12-18T11:39:24.322Z,99.99
2016-12-18T11:40:24.338Z,99.99
2016-12-18T11:41:24.290Z,99.99
2016-12-18T11:42:24.591Z,99.99
2016-12-18T11:43:24.261Z,99.99
2016-12-18T11:44:24.240Z,99.99
2016-12-18T11:45:24.229Z,99.99
2016-12-18T11:46:24.209Z,99.99
2016-12-18T11:47:24.192Z,99.99
2016-12-18T11:48:24.178Z,99.99
2016-12-18T11:49:24.189Z,99.99
2016-12-18T11:50:24.202Z,99.99
2016-12-18T11:51:24.143Z,99.99
2016-12-18T11:52:24.112Z,99.99
2016-12-18T11:53:24.097Z,99.99
2016-12-18T11:54:24.080Z,99.99
2016-12-18T11:55:24.386Z,99.99
2016-12-18T11:56:24.361Z,99.99
2016-12-18T11:57:24.030Z,99.99
2016-12-18T11:58:24.345Z,99.99
2016-12-18T11:59:24.010Z,99.99
2016-12-18T12:00:24.005Z,99.99
2016-12-18T12:01:23.965Z,99.99
2016-12-18T12:02:23.952Z,99.99
2016-12-18T12:03:23.938Z,99.99
2016-12-18T12:04:23.919Z,99.99
2016-12-18T12:05:23.921Z,99.99
2016-12-18T12:06:23.923Z,99.99
2016-12-18T12:07:23.869Z,99.99
2016-12-18T12:08:24.168Z,99.99
2016-12-18T12:09:23.833Z,99.99
2016-12-18T12:10:23.821Z,99.99
2016-12-18T12:11:23.804Z,99.99
2016-12-18T12:12:23.788Z,99.99
2016-12-18T12:13:23.768Z,99.99
2016-12-18T12:14:23.756Z,99.99
2016-12-18T12:15:23.740Z,99.99
2016-12-18T12:16:23.725Z,99.99
2016-12-18T12:17:23.706Z,99.99
2016-12-18T12:18:23.697Z,99.99
2016-12-18T12:19:23.680Z,99.99
2016-12-18T12:20:23.657Z,99.99
2016-12-18T12:21:23.956Z,99.99
2016-12-18T12:22:23.625Z,99.99
2016-12-18T12:23:23.819Z,99.99
2016-12-18T12:24:23.590Z,99.99
2016-12-18T12:25:23.611Z,99.99
2016-12-18T12:26:23.559Z,99.99
2016-12-18T12:27:23.856Z,99.99
2016-12-18T12:28:23.525Z,99.99
2016-12-18T12:29:23.512Z,99.99
2016-12-18T12:30:23.493Z,99.99
2016-12-18T12:31:23.486Z,99.99
2016-12-18T12:32:23.800Z,99.99
2016-12-18T12:33:23.447Z,99.99
2016-12-18T12:34:23.745Z,99.99
2016-12-18T12:35:23.414Z,99.99
2016-12-18T12:36:23.395Z,99.99
2016-12-18T12:37:23.382Z,99.99
2016-12-18T12:38:23.366Z,99.99
2016-12-18T12:39:23.345Z,99.99
2016-12-18T12:40:23.645Z,99.99
2016-12-18T12:41:23.314Z,99.99
2016-12-18T12:42:23.300Z,99.99
2016-12-18T12:43:23.283Z,99.99
2016-12-18T12:44:23.265Z,99.99
2016-12-18T12:45:23.249Z,99.99
2016-12-18T12:46:23.233Z,99.99
2016-12-18T12:47:23.221Z,99.99
2016-12-18T12:48:23.209Z,99.99
2016-12-18T12:49:23.186Z,99.99
2016-12-18T12:50:23.169Z,99.99
2016-12-18T12:51:23.156Z,99.99
2016-12-18T12:52:23.141Z,99.99
2016-12-18T12:53:23.126Z,99.99
2016-12-18T12:54:23.108Z,99.99
2016-12-18T12:55:23.095Z,99.99